createdAt,value
2024-05-09T00:01:56.459Z,5.85
2024-05-09T00:04:59.534Z,7.03
2024-05-09T00:08:01.915Z,7.07
2024-05-09T00:11:04.195Z,12.75
2024-05-09T00:14:07.163Z,7.53
2024-05-09T00:17:09.219Z,7.13
2024-05-09T00:20:17.947Z,6.47
2024-05-09T00:23:26.429Z,13.02
2024-05-09T00:26:30.370Z,7.63
2024-05-09T00:29:32.466Z,7.10
2024-05-09T00:32:34.475Z,8.60
2024-05-09T00:35:36.647Z,7.05
2024-05-09T00:38:38.658Z,7.75
2024-05-09T00:41:40.690Z,6.82
2024-05-09T00:44:42.657Z,7.10
2024-05-09T00:47:47.603Z,7.68
2024-05-09T00:50:50.089Z,7.22
2024-05-09T00:53:52.088Z,7.72
2024-05-09T00:56:54.493Z,7.13
2024-05-09T00:59:56.921Z,6.93
2024-05-09T01:02:59.013Z,7.20
2024-05-09T01:06:01.104Z,6.47
2024-05-09T01:09:03.310Z,6.97
2024-05-09T01:12:05.787Z,6.50
2024-05-09T01:15:08.093Z,6.85
2024-05-09T01:18:12.381Z,7.45
2024-05-09T01:21:15.559Z,6.95
2024-05-09T01:24:17.662Z,6.63
2024-05-09T01:27:19.659Z,7.82
2024-05-09T01:30:31.167Z,7.35
2024-05-09T01:33:36.413Z,6.90
2024-05-09T01:36:38.389Z,7.55
2024-05-09T01:39:40.340Z,6.95
2024-05-09T01:42:42.443Z,7.68
2024-05-09T01:45:44.641Z,8.90
2024-05-09T01:48:46.968Z,6.68
2024-05-09T01:51:49.036Z,7.35
2024-05-09T01:54:51.176Z,7.32
2024-05-09T01:57:53.113Z,7.95
2024-05-09T02:00:56.118Z,8.10
2024-05-09T02:03:58.363Z,6.75
2024-05-09T02:07:00.756Z,6.82
2024-05-09T02:10:06.577Z,7.15
2024-05-09T02:13:10.503Z,7.30
2024-05-09T02:16:13.531Z,7.50
2024-05-09T02:19:15.584Z,7.15
2024-05-09T02:22:17.723Z,8.20
2024-05-09T02:25:22.091Z,7.40
2024-05-09T02:28:24.159Z,7.28
2024-05-09T02:31:26.124Z,6.80
2024-05-09T02:34:28.147Z,7.20
2024-05-09T02:37:30.478Z,7.10
2024-05-09T02:40:37.542Z,8.10
2024-05-09T02:43:41.346Z,7.05
2024-05-09T02:46:43.358Z,8.13
2024-05-09T02:49:45.586Z,7.18
2024-05-09T02:52:47.692Z,8.90
2024-05-09T02:55:49.880Z,7.50
2024-05-09T02:58:51.913Z,7.57
2024-05-09T03:01:54.201Z,7.70
2024-05-09T03:04:56.357Z,7.57
2024-05-09T03:07:58.529Z,7.63
2024-05-09T03:11:00.583Z,7.13
2024-05-09T03:14:02.961Z,6.53
2024-05-09T03:17:05.109Z,7.70
2024-05-09T03:20:17.044Z,7.82
2024-05-09T03:23:22.809Z,7.57
2024-05-09T03:26:24.859Z,7.68
2024-05-09T03:29:26.911Z,7.88
2024-05-09T03:32:29.284Z,7.40
2024-05-09T03:35:31.511Z,8.20
2024-05-09T03:38:39.927Z,7.72
2024-05-09T03:41:42.137Z,7.00
2024-05-09T03:44:44.339Z,6.65
2024-05-09T03:47:46.477Z,8.52
2024-05-09T03:50:48.734Z,7.82
2024-05-09T03:53:50.799Z,6.95
2024-05-09T03:56:54.571Z,9.63
2024-05-09T03:59:56.463Z,8.13
2024-05-09T04:02:59.737Z,12.65
2024-05-09T04:06:01.807Z,8.07
2024-05-09T04:09:05.176Z,6.97
2024-05-09T04:12:08.416Z,6.97
2024-05-09T04:15:13.528Z,7.43
2024-05-09T04:18:17.971Z,7.55
2024-05-09T04:21:20.106Z,8.02
2024-05-09T04:24:22.268Z,8.15
2024-05-09T04:27:24.183Z,9.93
2024-05-09T04:30:34.937Z,7.90
2024-05-09T04:33:41.062Z,8.30
2024-05-09T04:36:44.738Z,7.22
2024-05-09T04:39:46.698Z,7.90
2024-05-09T04:42:48.744Z,7.57
2024-05-09T04:45:50.991Z,7.50
2024-05-09T04:48:53.902Z,8.55
2024-05-09T04:51:55.909Z,7.25
2024-05-09T04:54:59.176Z,6.82
2024-05-09T04:58:01.732Z,8.05
2024-05-09T05:01:03.948Z,7.65
2024-05-09T05:04:06.246Z,7.95
2024-05-09T05:07:08.361Z,8.93
2024-05-09T05:10:14.966Z,8.55
2024-05-09T05:13:24.570Z,8.27
2024-05-09T05:16:27.059Z,8.88
2024-05-09T05:19:29.115Z,8.05
2024-05-09T05:22:31.250Z,9.68
2024-05-09T05:25:33.430Z,10.55
2024-05-09T05:28:39.114Z,10.57
2024-05-09T05:31:41.195Z,9.07
2024-05-09T05:34:43.290Z,8.88
2024-05-09T05:37:45.176Z,9.65
2024-05-09T05:40:47.096Z,9.60
2024-05-09T05:43:49.347Z,9.45
2024-05-09T05:46:52.503Z,13.52
2024-05-09T05:49:54.598Z,9.45
2024-05-09T05:52:57.277Z,7.70
2024-05-09T05:55:59.313Z,8.68
2024-05-09T05:59:01.692Z,10.63
2024-05-09T06:02:04.058Z,10.38
2024-05-09T06:05:06.581Z,9.55
2024-05-09T06:08:09.071Z,8.82
2024-05-09T06:11:11.449Z,9.73
2024-05-09T06:14:13.847Z,9.35
2024-05-09T06:17:16.087Z,9.85
2024-05-09T06:20:23.921Z,8.88
2024-05-09T06:23:34.042Z,9.63
2024-05-09T06:26:39.126Z,11.65
2024-05-09T06:29:41.141Z,9.13
2024-05-09T06:32:43.955Z,8.77
2024-05-09T06:35:46.649Z,8.98
2024-05-09T06:38:48.901Z,8.50
2024-05-09T06:41:50.891Z,9.63
2024-05-09T06:44:52.726Z,9.25
2024-05-09T06:47:54.788Z,9.75
2024-05-09T06:50:56.851Z,9.45
2024-05-09T06:53:58.898Z,8.63
2024-05-09T06:57:00.798Z,8.45
2024-05-09T07:00:02.968Z,9.13
2024-05-09T07:03:13.837Z,7.97
2024-05-09T07:06:18.197Z,8.32
2024-05-09T07:09:20.367Z,7.70
2024-05-09T07:12:24.781Z,9.15
2024-05-09T07:15:26.749Z,7.60
2024-05-09T07:18:29.122Z,8.27
2024-05-09T07:21:32.624Z,9.07
2024-05-09T07:24:39.168Z,12.82
2024-05-09T07:27:41.371Z,7.97
2024-05-09T07:30:43.540Z,9.32
2024-05-09T07:33:45.831Z,8.10
2024-05-09T07:36:48.340Z,8.80
2024-05-09T07:39:50.290Z,10.00
2024-05-09T07:42:52.458Z,8.43
2024-05-09T07:45:56.443Z,9.38
2024-05-09T07:50:35.827Z,8.52
2024-05-09T07:53:30.205Z,9.63
2024-05-09T07:55:45.130Z,8.05
2024-05-09T07:58:47.350Z,8.77
2024-05-09T08:01:50.192Z,7.90
2024-05-09T08:04:52.399Z,8.18
2024-05-09T08:07:55.498Z,8.13
2024-05-09T08:10:57.562Z,8.68
2024-05-09T08:13:59.679Z,7.57
2024-05-09T08:17:01.722Z,8.20
2024-05-09T08:20:05.756Z,8.48
2024-05-09T08:23:08.199Z,7.78
2024-05-09T08:26:16.521Z,7.57
2024-05-09T08:29:21.090Z,7.47
2024-05-09T08:32:27.454Z,7.85
2024-05-09T08:35:34.545Z,7.22
2024-05-09T08:38:38.135Z,7.28
2024-05-09T08:41:42.877Z,7.43
2024-05-09T08:44:48.345Z,7.43
2024-05-09T08:47:51.550Z,7.22
2024-05-09T08:50:53.883Z,6.63
2024-05-09T08:53:58.001Z,7.32
2024-05-09T08:57:01.343Z,7.63
2024-05-09T09:00:12.707Z,6.95
2024-05-09T09:03:28.476Z,7.07
2024-05-09T09:06:35.052Z,6.68
2024-05-09T09:09:43.651Z,7.20
2024-05-09T09:13:03.526Z,6.78
2024-05-09T09:16:09.937Z,8.47
2024-05-09T09:19:14.778Z,6.35
2024-05-09T09:22:21.846Z,6.13
2024-05-09T09:25:41.539Z,6.65
2024-05-09T09:28:46.174Z,6.53
2024-05-09T09:32:01.425Z,6.57
2024-05-09T09:35:04.802Z,6.70
2024-05-09T09:38:10.823Z,6.68
2024-05-09T09:41:16.967Z,6.20
2024-05-09T09:44:19.743Z,5.97
2024-05-09T09:47:22.897Z,6.03
2024-05-09T09:50:33.514Z,7.35
2024-05-09T09:53:40.177Z,6.65
2024-05-09T09:56:45.140Z,7.28
2024-05-09T09:59:50.418Z,7.53
2024-05-09T10:02:52.649Z,5.75
2024-05-09T10:05:55.431Z,6.65
2024-05-09T10:08:57.830Z,7.97
2024-05-09T10:12:10.311Z,6.18
2024-05-09T10:15:15.122Z,6.55
2024-05-09T10:18:27.233Z,7.65
2024-05-09T10:21:34.580Z,6.85
2024-05-09T10:25:05.384Z,7.05
2024-05-09T10:28:19.372Z,6.63
2024-05-09T10:31:21.393Z,7.78
2024-05-09T10:34:43.843Z,6.35
2024-05-09T10:37:46.615Z,7.85
2024-05-09T10:40:56.874Z,6.90
2024-05-09T10:43:59.229Z,7.32
2024-05-09T10:47:01.453Z,7.78
2024-05-09T10:50:07.876Z,6.95
2024-05-09T10:53:14.715Z,6.95
2024-05-09T10:56:17.386Z,6.78
2024-05-09T10:59:22.081Z,7.40
2024-05-09T11:02:24.170Z,7.43
2024-05-09T11:05:27.326Z,7.50
2024-05-09T11:08:31.958Z,6.80
2024-05-09T11:11:35.989Z,7.80
2024-05-09T11:14:38.415Z,7.32
2024-05-09T11:17:40.691Z,7.25
2024-05-09T11:20:45.206Z,7.70
2024-05-09T11:23:47.652Z,6.47
2024-05-09T11:26:49.675Z,7.90
2024-05-09T11:29:51.771Z,6.60
2024-05-09T11:32:56.627Z,6.80
2024-05-09T11:35:58.916Z,6.35
2024-05-09T11:39:01.897Z,7.18
2024-05-09T11:42:04.959Z,7.20
2024-05-09T11:45:07.398Z,6.43
2024-05-09T11:48:09.547Z,6.65
2024-05-09T11:51:11.596Z,7.68
2024-05-09T11:54:15.961Z,7.15
2024-05-09T11:57:18.065Z,7.22
2024-05-09T12:00:29.084Z,7.47
2024-05-09T12:03:38.298Z,6.07
2024-05-09T12:06:43.045Z,7.07
2024-05-09T12:09:45.188Z,6.57
2024-05-09T12:12:47.195Z,6.80
2024-05-09T12:15:49.166Z,6.95
2024-05-09T12:18:51.118Z,6.53
2024-05-09T12:21:53.177Z,6.47
2024-05-09T12:24:55.392Z,6.25
2024-05-09T12:27:57.427Z,6.60
2024-05-09T12:30:59.594Z,6.97
2024-05-09T12:34:01.652Z,7.38
2024-05-09T12:37:04.209Z,5.60
2024-05-09T12:40:12.742Z,7.35
2024-05-09T12:43:20.508Z,5.72
2024-05-09T12:46:23.550Z,6.18
2024-05-09T12:49:25.769Z,5.60
2024-05-09T12:52:28.836Z,5.78
2024-05-09T12:55:37.182Z,6.85
2024-05-09T12:58:46.407Z,5.55
2024-05-09T13:01:48.713Z,4.70
2024-05-09T13:04:51.302Z,5.72
2024-05-09T13:07:53.494Z,5.35
2024-05-09T13:10:55.798Z,5.53
2024-05-09T13:13:58.004Z,5.80
2024-05-09T13:17:00.221Z,5.53
2024-05-09T13:20:03.319Z,5.18
2024-05-09T13:23:08.413Z,5.57
2024-05-09T13:26:10.768Z,6.10
2024-05-09T13:29:12.696Z,5.53
2024-05-09T13:32:15.212Z,6.20
2024-05-09T13:35:17.114Z,6.00
2024-05-09T13:38:20.644Z,5.10
2024-05-09T13:41:22.852Z,5.32
2024-05-09T13:44:24.756Z,5.88
2024-05-09T13:47:27.363Z,5.47
2024-05-09T13:50:36.972Z,5.40
2024-05-09T13:53:39.187Z,5.78
2024-05-09T13:56:41.656Z,6.28
2024-05-09T13:59:43.713Z,4.80
2024-05-09T14:02:46.055Z,4.82
2024-05-09T14:05:52.167Z,6.18
2024-05-09T14:08:54.856Z,5.75
2024-05-09T14:11:56.919Z,5.18
2024-05-09T14:15:01.695Z,5.43
2024-05-09T14:18:05.070Z,5.00
2024-05-09T14:21:07.178Z,6.68
2024-05-09T14:24:09.207Z,6.22
2024-05-09T14:27:11.252Z,5.13
2024-05-09T14:30:22.084Z,4.90
2024-05-09T14:33:30.805Z,6.38
2024-05-09T14:36:34.092Z,5.68
2024-05-09T14:39:36.151Z,5.07
2024-05-09T14:42:38.002Z,5.88
2024-05-09T14:45:40.860Z,5.50
2024-05-09T14:48:44.984Z,6.32
2024-05-09T14:51:50.131Z,6.05
2024-05-09T14:55:00.024Z,5.03
2024-05-09T15:01:05.407Z,5.28
2024-05-09T15:04:07.776Z,5.53
2024-05-09T15:07:11.542Z,5.70
2024-05-09T15:10:20.427Z,6.05
2024-05-09T15:13:26.042Z,7.82
2024-05-09T15:16:28.620Z,5.95
2024-05-09T15:19:31.111Z,5.20
2024-05-09T15:22:33.134Z,5.80
2024-05-09T15:25:36.713Z,5.63
2024-05-09T15:28:41.416Z,5.22
2024-05-09T15:31:43.393Z,6.30
2024-05-09T15:34:46.340Z,6.22
2024-05-09T15:37:48.761Z,6.07
2024-05-09T15:40:50.783Z,5.72
2024-05-09T15:43:52.843Z,5.40
2024-05-09T15:46:54.778Z,5.63
2024-05-09T15:49:57.011Z,5.30
2024-05-09T15:52:59.198Z,5.57
2024-05-09T15:56:01.350Z,5.68
2024-05-09T15:59:03.375Z,7.15
2024-05-09T16:02:06.015Z,5.65
2024-05-09T16:05:09.454Z,6.30
2024-05-09T16:08:13.045Z,5.88
2024-05-09T16:11:17.092Z,5.72
2024-05-09T16:14:19.188Z,4.90
2024-05-09T16:17:21.340Z,5.38
2024-05-09T16:23:29.045Z,6.15
2024-05-09T16:26:30.952Z,5.90
2024-05-09T16:29:32.992Z,7.07
2024-05-09T16:32:35.950Z,6.30
2024-05-09T16:35:39.594Z,6.38
2024-05-09T16:38:43.058Z,6.07
2024-05-09T16:41:44.882Z,5.90
2024-05-09T16:44:47.031Z,5.82
2024-05-09T16:47:49.132Z,6.93
2024-05-09T16:50:51.020Z,14.88
2024-05-09T16:53:53.161Z,6.55
2024-05-09T16:56:55.973Z,6.68
2024-05-09T16:59:57.965Z,6.07
2024-05-09T17:02:59.910Z,5.90
2024-05-09T17:06:03.651Z,6.43
2024-05-09T17:09:11.489Z,6.03
2024-05-09T17:12:14.045Z,5.68
2024-05-09T17:15:19.091Z,6.03
2024-05-09T17:18:21.446Z,5.72
2024-05-09T17:21:26.372Z,7.43
2024-05-09T17:24:28.418Z,6.97
2024-05-09T17:27:30.562Z,8.32
2024-05-09T17:30:36.759Z,7.07
2024-05-09T17:33:41.158Z,7.13
2024-05-09T17:36:45.457Z,6.47
2024-05-09T17:39:47.435Z,6.05
2024-05-09T17:42:49.836Z,6.63
2024-05-09T17:45:52.153Z,6.40
2024-05-09T17:48:57.349Z,7.15
2024-05-09T17:52:02.272Z,5.45
2024-05-09T17:55:07.401Z,6.22
2024-05-09T17:58:10.014Z,6.22
2024-05-09T18:01:12.378Z,6.50
2024-05-09T18:04:14.492Z,6.10
2024-05-09T18:07:17.087Z,5.88
2024-05-09T18:10:25.784Z,6.22
2024-05-09T18:13:35.579Z,6.82
2024-05-09T18:16:38.985Z,7.45
2024-05-09T18:19:41.443Z,6.53
2024-05-09T18:22:44.897Z,6.40
2024-05-09T18:25:47.873Z,6.45
2024-05-09T18:28:50.515Z,7.40
2024-05-09T18:31:53.233Z,5.45
2024-05-09T18:34:55.798Z,6.85
2024-05-09T18:37:58.285Z,6.43
2024-05-09T18:41:03.462Z,5.85
2024-05-09T18:44:06.125Z,7.30
2024-05-09T18:47:10.419Z,6.40
2024-05-09T18:50:17.733Z,7.15
2024-05-09T18:53:27.203Z,8.52
2024-05-09T18:56:32.183Z,7.20
2024-05-09T18:59:34.782Z,6.93
2024-05-09T19:02:38.717Z,6.90
2024-05-09T19:05:47.513Z,6.88
2024-05-09T19:08:58.863Z,6.30
2024-05-09T19:12:03.599Z,6.05
2024-05-09T19:15:06.524Z,6.18
2024-05-09T19:18:13.383Z,7.28
2024-05-09T19:21:16.444Z,6.47
2024-05-09T19:24:18.691Z,8.07
2024-05-09T19:27:21.007Z,7.28
2024-05-09T19:30:32.901Z,6.82
2024-05-09T19:33:42.238Z,7.82
2024-05-09T19:36:48.670Z,7.53
2024-05-09T19:39:52.513Z,6.72
2024-05-09T19:42:55.122Z,8.40
2024-05-09T19:45:57.664Z,7.28
2024-05-09T19:49:00.683Z,7.05
2024-05-09T19:52:03.308Z,7.80
2024-05-09T19:55:05.845Z,6.35
2024-05-09T19:58:10.921Z,7.32
2024-05-09T20:01:14.136Z,7.07
2024-05-09T20:04:19.331Z,7.22
2024-05-09T20:07:22.031Z,7.18
2024-05-09T20:10:31.709Z,7.00
2024-05-09T20:13:37.332Z,7.70
2024-05-09T20:16:41.766Z,7.90
2024-05-09T20:19:45.104Z,7.68
2024-05-09T20:22:53.841Z,7.10
2024-05-09T20:25:56.928Z,7.32
2024-05-09T20:28:59.399Z,8.07
2024-05-09T20:32:01.504Z,7.05
2024-05-09T20:35:04.158Z,7.47
2024-05-09T20:38:06.567Z,9.32
2024-05-09T20:41:11.665Z,8.38
2024-05-09T20:44:14.062Z,7.97
2024-05-09T20:47:16.230Z,8.63
2024-05-09T20:50:27.884Z,7.13
2024-05-09T20:53:37.897Z,9.25
2024-05-09T20:56:42.845Z,8.25
2024-05-09T20:59:44.846Z,8.00
2024-05-09T21:02:47.204Z,7.90
2024-05-09T21:05:49.826Z,7.82
2024-05-09T21:08:53.710Z,7.57
2024-05-09T21:11:55.509Z,8.57
2024-05-09T21:14:57.683Z,8.18
2024-05-09T21:17:59.942Z,9.00
2024-05-09T21:21:02.202Z,8.40
2024-05-09T21:24:05.490Z,7.35
2024-05-09T21:27:07.658Z,8.90
2024-05-09T21:30:15.976Z,8.52
2024-05-09T21:33:25.219Z,8.13
2024-05-09T21:36:27.642Z,7.50
2024-05-09T21:39:30.354Z,8.57
2024-05-09T21:42:33.163Z,8.82
2024-05-09T21:45:36.261Z,9.18
2024-05-09T21:48:38.782Z,9.02
2024-05-09T21:51:40.953Z,8.63
2024-05-09T21:54:42.909Z,7.25
2024-05-09T21:57:44.938Z,9.30
2024-05-09T22:00:47.355Z,7.78
2024-05-09T22:03:49.564Z,7.40
2024-05-09T22:06:51.817Z,8.80
2024-05-09T22:09:57.030Z,8.68
2024-05-09T22:12:59.509Z,8.70
2024-05-09T22:16:04.033Z,8.20
2024-05-09T22:19:06.234Z,9.90
2024-05-09T22:22:08.346Z,8.85
2024-05-09T22:25:10.392Z,8.15
2024-05-09T22:28:15.126Z,8.55
2024-05-09T22:31:17.451Z,7.97
2024-05-09T22:34:19.720Z,9.82
2024-05-09T22:37:21.893Z,9.65
2024-05-09T22:40:29.432Z,9.20
2024-05-09T22:43:40.285Z,9.40
2024-05-09T22:46:42.502Z,9.45
2024-05-09T22:49:44.951Z,9.45
2024-05-09T22:52:47.117Z,8.77
2024-05-09T22:55:51.747Z,10.05
2024-05-09T22:58:56.994Z,9.40
2024-05-09T23:01:59.331Z,8.95
2024-05-09T23:05:01.795Z,9.73
2024-05-09T23:08:04.396Z,8.32
2024-05-09T23:11:06.836Z,8.77
2024-05-09T23:14:09.011Z,9.63
2024-05-09T23:17:11.018Z,8.93
2024-05-09T23:20:14.869Z,9.20
2024-05-09T23:23:17.644Z,8.90
2024-05-09T23:26:19.511Z,8.75
2024-05-09T23:29:21.868Z,10.32
2024-05-09T23:32:23.922Z,8.48
2024-05-09T23:35:26.781Z,8.68
2024-05-09T23:38:28.763Z,9.02
2024-05-09T23:41:30.792Z,10.13
2024-05-09T23:44:32.937Z,9.50
2024-05-09T23:47:35.253Z,9.77
2024-05-09T23:50:39.217Z,10.60
2024-05-09T23:53:48.442Z,10.15
2024-05-09T23:56:50.903Z,8.77
2024-05-09T23:59:53.476Z,8.95
